createdAt,value
2022-10-22T00:00:46.082Z,15.12
2022-10-22T00:03:12.826Z,15.13
2022-10-22T00:05:39.441Z,15.11
2022-10-22T00:08:06.089Z,15.09
2022-10-22T00:10:32.601Z,15.11
2022-10-22T00:12:58.971Z,15.07
2022-10-22T00:15:25.496Z,15.06
2022-10-22T00:17:51.962Z,15.07
2022-10-22T00:20:18.537Z,15.05
2022-10-22T00:22:44.968Z,15.06
2022-10-22T00:25:11.373Z,15.06
2022-10-22T00:27:37.857Z,15.04
2022-10-22T00:30:04.929Z,15.04
2022-10-22T00:32:31.308Z,15.04
2022-10-22T00:34:57.653Z,15.04
2022-10-22T00:37:24.051Z,15.04
2022-10-22T00:39:50.435Z,15.04
2022-10-22T00:42:19.932Z,15.05
2022-10-22T00:45:11.064Z,15.03
2022-10-22T00:47:41.589Z,14.98
2022-10-22T00:50:13.136Z,14.99
2022-10-22T00:52:40.262Z,15.03
2022-10-22T00:55:07.329Z,15.05
2022-10-22T00:57:35.070Z,15.04
2022-10-22T01:00:02.197Z,15.06
2022-10-22T01:02:28.599Z,15.06
2022-10-22T01:04:54.952Z,15.08
2022-10-22T01:07:24.190Z,15.09
2022-10-22T01:10:02.824Z,15.11
2022-10-22T01:12:48.010Z,15.12
2022-10-22T01:15:26.652Z,15.14
2022-10-22T01:18:10.859Z,15.12
2022-10-22T01:21:08.625Z,15.10
2022-10-22T01:24:00.611Z,15.08
2022-10-22T01:27:00.854Z,15.08
2022-10-22T01:29:38.426Z,15.06
2022-10-22T01:32:10.966Z,15.06
2022-10-22T01:34:41.196Z,15.04
2022-10-22T01:37:10.532Z,15.05
2022-10-22T01:39:40.555Z,15.10
2022-10-22T01:42:06.953Z,15.10
2022-10-22T01:44:37.286Z,15.13
2022-10-22T01:47:22.610Z,15.11
2022-10-22T01:50:03.849Z,15.11
2022-10-22T01:52:53.945Z,15.14
2022-10-22T01:55:56.449Z,15.12
2022-10-22T01:58:29.945Z,15.14
2022-10-22T02:01:04.928Z,15.14
2022-10-22T02:03:42.814Z,15.16
2022-10-22T02:06:17.311Z,15.16
2022-10-22T02:08:45.098Z,15.15
2022-10-22T02:11:13.761Z,15.16
2022-10-22T02:13:44.990Z,15.14
2022-10-22T02:16:16.602Z,15.11
2022-10-22T02:18:46.254Z,15.10
2022-10-22T02:21:13.370Z,15.10
2022-10-22T02:23:39.886Z,15.08
2022-10-22T02:26:15.227Z,15.10
2022-10-22T02:28:54.633Z,15.08
2022-10-22T02:31:26.425Z,15.06
2022-10-22T02:33:57.169Z,15.03
2022-10-22T02:36:24.781Z,14.99
2022-10-22T02:38:52.171Z,15.03
2022-10-22T02:41:20.065Z,14.99
2022-10-22T02:43:54.541Z,14.96
2022-10-22T02:46:21.568Z,15.01
2022-10-22T02:48:48.121Z,14.93
2022-10-22T02:51:14.854Z,14.91
2022-10-22T02:53:41.357Z,14.91
2022-10-22T02:56:08.452Z,14.90
2022-10-22T02:58:35.176Z,14.94
2022-10-22T03:01:01.575Z,14.94
2022-10-22T03:03:28.156Z,14.94
2022-10-22T03:05:54.493Z,14.91
2022-10-22T03:08:20.849Z,14.91
2022-10-22T03:10:47.207Z,14.89
2022-10-22T03:13:13.873Z,14.92
2022-10-22T03:15:40.211Z,14.93
2022-10-22T03:18:06.676Z,14.86
2022-10-22T03:20:33.013Z,14.88
2022-10-22T03:23:01.065Z,14.84
2022-10-22T03:25:28.414Z,14.86
2022-10-22T03:28:00.898Z,14.87
2022-10-22T03:30:27.317Z,14.83
2022-10-22T03:32:53.709Z,14.81
2022-10-22T03:35:20.161Z,14.81
2022-10-22T03:37:46.616Z,14.80
2022-10-22T03:40:13.880Z,14.77
2022-10-22T03:42:41.526Z,14.77
2022-10-22T03:45:08.745Z,14.77
2022-10-22T03:47:36.587Z,14.73
2022-10-22T03:50:05.268Z,14.73
2022-10-22T03:52:39.527Z,14.72
2022-10-22T03:55:07.662Z,14.70
2022-10-22T03:57:34.309Z,14.71
2022-10-22T04:00:00.717Z,14.67
2022-10-22T04:02:27.054Z,14.63
2022-10-22T04:04:53.450Z,14.63
2022-10-22T04:07:19.841Z,14.58
2022-10-22T04:09:46.178Z,14.57
2022-10-22T04:12:12.574Z,14.58
2022-10-22T04:14:38.950Z,14.56
2022-10-22T04:17:05.349Z,14.56
2022-10-22T04:19:31.749Z,14.58
2022-10-22T04:21:59.732Z,14.59
2022-10-22T04:24:26.438Z,14.58
2022-10-22T04:26:56.233Z,14.56
2022-10-22T04:29:23.382Z,14.54
2022-10-22T04:31:49.773Z,14.52
2022-10-22T04:34:16.180Z,14.52
2022-10-22T04:36:42.530Z,14.47
2022-10-22T04:39:09.169Z,14.50
2022-10-22T04:41:37.812Z,14.55
2022-10-22T04:44:05.102Z,14.52
2022-10-22T04:46:34.161Z,14.56
2022-10-22T04:49:00.640Z,14.57
2022-10-22T04:51:27.824Z,14.57
2022-10-22T04:53:54.282Z,14.57
2022-10-22T04:56:22.957Z,14.58
2022-10-22T04:58:51.456Z,14.58
2022-10-22T05:01:21.044Z,14.55
2022-10-22T05:03:52.498Z,14.59
2022-10-22T05:06:20.793Z,14.62
2022-10-22T05:08:47.958Z,14.58
2022-10-22T05:11:23.496Z,14.58
2022-10-22T05:13:49.877Z,14.55
2022-10-22T05:16:16.573Z,14.54
2022-10-22T05:18:44.803Z,14.54
2022-10-22T05:21:15.054Z,14.48
2022-10-22T05:23:42.063Z,14.49
2022-10-22T05:26:10.222Z,14.49
2022-10-22T05:28:37.417Z,14.47
2022-10-22T05:31:05.250Z,14.51
2022-10-22T05:33:33.677Z,14.47
2022-10-22T05:36:02.070Z,14.45
2022-10-22T05:38:28.552Z,14.40
2022-10-22T05:41:03.229Z,14.38
2022-10-22T05:43:29.817Z,14.30
2022-10-22T05:45:56.572Z,14.31
2022-10-22T05:48:23.208Z,14.32
2022-10-22T05:50:50.750Z,14.31
2022-10-22T05:53:19.894Z,14.33
2022-10-22T05:55:46.281Z,14.35
2022-10-22T05:58:13.698Z,14.29
2022-10-22T06:00:40.738Z,14.30
2022-10-22T06:03:07.241Z,14.28
2022-10-22T06:05:37.857Z,14.25
2022-10-22T06:08:04.907Z,14.24
2022-10-22T06:10:31.527Z,14.27
2022-10-22T06:12:57.990Z,14.26
2022-10-22T06:15:24.359Z,14.29
2022-10-22T06:17:50.737Z,14.28
2022-10-22T06:20:17.457Z,14.30
2022-10-22T06:22:44.129Z,14.31
2022-10-22T06:25:10.914Z,14.32
2022-10-22T06:27:37.262Z,14.32
2022-10-22T06:30:04.067Z,14.29
2022-10-22T06:32:30.592Z,14.27
2022-10-22T06:34:56.977Z,14.30
2022-10-22T06:37:23.350Z,14.30
2022-10-22T06:39:49.727Z,14.33
2022-10-22T06:42:16.101Z,14.30
2022-10-22T06:44:45.842Z,14.33
2022-10-22T06:47:12.201Z,14.33
2022-10-22T06:49:38.614Z,14.35
2022-10-22T06:52:05.088Z,14.34
2022-10-22T06:54:31.477Z,14.37
2022-10-22T06:56:57.831Z,14.38
2022-10-22T06:59:24.258Z,14.39
2022-10-22T07:01:50.746Z,14.38
2022-10-22T07:04:17.163Z,14.41
2022-10-22T07:06:43.582Z,14.40
2022-10-22T07:09:10.060Z,14.41
2022-10-22T07:11:45.156Z,14.39
2022-10-22T07:14:13.166Z,14.42
2022-10-22T07:16:42.916Z,14.48
2022-10-22T07:19:09.453Z,14.45
2022-10-22T07:21:35.867Z,14.47
2022-10-22T07:24:02.417Z,14.47
2022-10-22T07:26:32.407Z,14.46
2022-10-22T07:29:02.665Z,14.46
2022-10-22T07:31:29.888Z,14.50
2022-10-22T07:33:57.063Z,14.46
2022-10-22T07:36:23.528Z,14.47
2022-10-22T07:38:55.538Z,14.51
2022-10-22T07:41:21.979Z,14.49
2022-10-22T07:43:48.352Z,14.52
2022-10-22T07:46:14.883Z,14.51
2022-10-22T07:48:41.634Z,14.57
2022-10-22T07:51:09.114Z,14.65
2022-10-22T07:53:36.022Z,14.68
2022-10-22T07:56:02.478Z,14.66
2022-10-22T07:58:29.002Z,14.69
2022-10-22T08:00:56.974Z,14.64
2022-10-22T08:03:23.514Z,14.66
2022-10-22T08:05:51.634Z,14.64
2022-10-22T08:08:18.881Z,14.66
2022-10-22T08:10:46.966Z,14.61
2022-10-22T08:13:13.352Z,14.67
2022-10-22T08:15:39.962Z,14.70
2022-10-22T08:18:06.378Z,14.69
2022-10-22T08:20:32.819Z,14.64
2022-10-22T08:22:59.460Z,14.69
2022-10-22T08:25:26.340Z,14.68
2022-10-22T08:27:52.727Z,14.68
2022-10-22T08:30:19.617Z,14.65
2022-10-22T08:32:46.302Z,14.63
2022-10-22T08:35:15.379Z,14.59
2022-10-22T08:37:43.677Z,14.66
2022-10-22T08:40:21.513Z,14.69
2022-10-22T08:43:23.563Z,14.76
2022-10-22T08:46:10.771Z,14.77
2022-10-22T08:49:00.106Z,14.78
2022-10-22T08:51:31.953Z,14.77
2022-10-22T08:54:14.460Z,14.76
2022-10-22T08:56:50.447Z,14.82
2022-10-22T08:59:37.694Z,14.82
2022-10-22T09:02:14.498Z,14.83
2022-10-22T09:04:51.225Z,14.84
2022-10-22T09:07:17.666Z,14.91
2022-10-22T09:09:50.727Z,14.90
2022-10-22T09:12:20.231Z,14.91
2022-10-22T09:14:47.444Z,14.94
2022-10-22T09:17:25.849Z,14.98
2022-10-22T09:20:15.906Z,15.06
2022-10-22T09:23:17.375Z,15.12
2022-10-22T09:25:45.193Z,15.18
2022-10-22T09:28:11.574Z,15.25
2022-10-22T09:30:39.827Z,15.28
2022-10-22T09:33:06.183Z,15.26
2022-10-22T09:35:47.746Z,15.29
2022-10-22T09:38:18.756Z,15.31
2022-10-22T09:40:52.155Z,15.28
2022-10-22T09:43:18.980Z,15.23
2022-10-22T09:45:47.038Z,15.28
2022-10-22T09:48:34.343Z,15.37
2022-10-22T09:51:12.787Z,15.45
2022-10-22T09:53:43.409Z,15.50
2022-10-22T09:56:19.040Z,15.36
2022-10-22T09:58:49.240Z,15.42
2022-10-22T10:01:25.376Z,15.48
2022-10-22T10:03:52.107Z,15.49
2022-10-22T10:06:21.007Z,15.51
2022-10-22T10:08:48.058Z,15.55
2022-10-22T10:11:33.054Z,15.67
2022-10-22T10:14:10.365Z,15.76
2022-10-22T10:16:57.957Z,15.80
2022-10-22T10:19:51.161Z,15.77
2022-10-22T10:22:38.271Z,15.79
2022-10-22T10:25:41.266Z,15.80
2022-10-22T10:28:24.612Z,15.81
2022-10-22T10:31:09.652Z,15.81
2022-10-22T10:33:59.518Z,15.80
2022-10-22T10:36:54.323Z,15.75
2022-10-22T10:39:29.565Z,15.74
2022-10-22T10:42:11.992Z,15.82
2022-10-22T10:45:02.624Z,15.91
2022-10-22T10:48:06.742Z,15.95
2022-10-22T10:51:08.638Z,16.02
2022-10-22T10:53:49.869Z,15.97
2022-10-22T10:56:34.496Z,16.03
2022-10-22T10:59:30.287Z,16.05
2022-10-22T11:02:13.862Z,16.03
2022-10-22T11:05:07.003Z,15.97
2022-10-22T11:07:42.242Z,15.96
2022-10-22T11:10:29.728Z,15.94
2022-10-22T11:13:04.045Z,16.01
2022-10-22T11:15:37.025Z,16.04
2022-10-22T11:18:34.519Z,16.14
2022-10-22T11:21:40.050Z,16.23
2022-10-22T11:24:22.701Z,16.22
2022-10-22T11:27:12.188Z,16.23
2022-10-22T11:29:45.179Z,16.37
2022-10-22T11:32:20.625Z,16.50
2022-10-22T11:34:50.621Z,16.54
2022-10-22T11:37:18.104Z,16.55
2022-10-22T11:39:52.023Z,16.60
2022-10-22T11:42:21.887Z,16.66
2022-10-22T11:45:02.065Z,16.65
2022-10-22T11:47:33.309Z,16.65
2022-10-22T11:50:18.477Z,16.63
2022-10-22T11:52:55.006Z,16.71
2022-10-22T11:55:32.377Z,16.74
2022-10-22T11:58:22.278Z,16.68
2022-10-22T12:00:49.181Z,16.61
2022-10-22T12:03:32.397Z,16.48
2022-10-22T12:06:04.928Z,16.40
2022-10-22T12:08:33.803Z,16.41
2022-10-22T12:11:15.305Z,16.42
2022-10-22T12:14:06.294Z,16.44
2022-10-22T12:16:54.561Z,16.36
2022-10-22T12:19:21.961Z,16.48
2022-10-22T12:21:53.009Z,16.47
2022-10-22T12:24:22.492Z,16.54
2022-10-22T12:26:52.642Z,16.66
2022-10-22T12:29:23.656Z,16.70
2022-10-22T12:31:50.311Z,16.72
2022-10-22T12:34:21.824Z,16.73
2022-10-22T12:36:50.675Z,16.81
2022-10-22T12:39:20.150Z,16.85
2022-10-22T12:41:47.146Z,16.85
2022-10-22T12:44:17.364Z,16.81
2022-10-22T12:46:46.913Z,16.87
2022-10-22T12:49:17.902Z,17.00
2022-10-22T12:51:46.010Z,17.09
2022-10-22T12:54:26.636Z,17.10
2022-10-22T12:56:55.307Z,17.07
2022-10-22T12:59:27.859Z,17.08
2022-10-22T13:01:55.504Z,17.07
2022-10-22T13:04:37.575Z,17.16
2022-10-22T13:07:03.869Z,17.16
2022-10-22T13:09:57.989Z,17.24
2022-10-22T13:12:35.791Z,17.20
2022-10-22T13:15:32.413Z,17.19
2022-10-22T13:18:23.729Z,17.04
2022-10-22T13:21:02.909Z,16.98
2022-10-22T13:23:31.547Z,16.97
2022-10-22T13:26:14.277Z,16.95
2022-10-22T13:28:41.327Z,16.89
2022-10-22T13:31:27.322Z,16.94
2022-10-22T13:34:02.406Z,16.94
2022-10-22T13:36:32.629Z,16.97
2022-10-22T13:38:59.249Z,17.01
2022-10-22T13:41:28.387Z,17.06
2022-10-22T13:43:55.166Z,17.14
2022-10-22T13:46:23.516Z,17.13
2022-10-22T13:48:53.477Z,17.02
2022-10-22T13:51:23.293Z,17.04
2022-10-22T13:53:52.559Z,17.12
2022-10-22T13:56:20.711Z,17.17
2022-10-22T13:58:47.818Z,17.23
2022-10-22T14:01:20.785Z,17.17
2022-10-22T14:03:48.896Z,17.17
2022-10-22T14:06:17.024Z,17.13
2022-10-22T14:08:45.939Z,17.11
2022-10-22T14:11:12.586Z,17.07
2022-10-22T14:13:39.067Z,17.02
2022-10-22T14:16:08.349Z,16.96
2022-10-22T14:18:35.757Z,16.91
2022-10-22T14:21:07.195Z,16.88
2022-10-22T14:23:36.161Z,16.81
2022-10-22T14:26:04.289Z,16.80
2022-10-22T14:28:34.197Z,16.80
2022-10-22T14:31:10.816Z,16.77
2022-10-22T14:33:37.231Z,16.75
2022-10-22T14:36:03.710Z,16.72
2022-10-22T14:38:30.139Z,16.68
2022-10-22T14:40:57.833Z,16.69
2022-10-22T14:43:27.067Z,16.68
2022-10-22T14:45:55.304Z,16.69
2022-10-22T14:48:21.674Z,16.73
2022-10-22T14:50:48.610Z,16.74
2022-10-22T14:53:16.572Z,16.79
2022-10-22T14:55:44.256Z,16.81
2022-10-22T14:58:12.197Z,16.77
2022-10-22T15:00:41.076Z,16.79
2022-10-22T15:03:07.476Z,16.84
2022-10-22T15:05:33.870Z,16.88
2022-10-22T15:08:00.288Z,16.92
2022-10-22T15:10:26.853Z,16.93
2022-10-22T15:12:53.255Z,16.90
2022-10-22T15:15:22.597Z,16.89
2022-10-22T15:17:49.630Z,16.86
2022-10-22T15:20:16.026Z,16.79
2022-10-22T15:22:42.898Z,16.85
2022-10-22T15:25:10.246Z,16.84
2022-10-22T15:27:36.603Z,16.84
2022-10-22T15:32:35.073Z,16.69
2022-10-22T15:35:01.714Z,16.60
2022-10-22T15:37:28.216Z,16.64
2022-10-22T15:39:54.670Z,16.64
2022-10-22T15:42:21.056Z,16.56
2022-10-22T15:44:47.422Z,16.61
2022-10-22T15:47:13.842Z,16.66
2022-10-22T15:49:41.937Z,16.67
2022-10-22T15:52:09.661Z,16.59
2022-10-22T15:54:36.316Z,16.60
2022-10-22T15:57:05.676Z,16.61
2022-10-22T15:59:32.121Z,16.60
2022-10-22T16:01:58.490Z,16.58
2022-10-22T16:04:24.833Z,16.58
2022-10-22T16:06:53.109Z,16.53
2022-10-22T16:09:22.536Z,16.53
2022-10-22T16:11:50.149Z,16.48
2022-10-22T16:14:19.699Z,16.45
2022-10-22T16:16:48.691Z,16.44
2022-10-22T16:19:17.545Z,16.42
2022-10-22T16:21:44.892Z,16.38
2022-10-22T16:24:12.359Z,16.37
2022-10-22T16:26:38.733Z,16.36
2022-10-22T16:29:05.792Z,16.31
2022-10-22T16:31:32.167Z,16.28
2022-10-22T16:33:58.568Z,16.26
2022-10-22T16:36:25.122Z,16.25
2022-10-22T16:38:51.545Z,16.24
2022-10-22T16:41:23.506Z,16.23
2022-10-22T16:43:52.313Z,16.20
2022-10-22T16:46:20.293Z,16.18
2022-10-22T16:48:51.729Z,16.15
2022-10-22T16:51:21.321Z,16.09
2022-10-22T16:53:48.102Z,16.07
2022-10-22T16:56:16.524Z,16.05
2022-10-22T16:58:48.806Z,16.03
2022-10-22T17:01:18.113Z,16.01
2022-10-22T17:03:45.596Z,15.98
2022-10-22T17:06:12.168Z,15.97
2022-10-22T17:08:39.986Z,15.96
2022-10-22T17:11:08.395Z,15.92
2022-10-22T17:13:35.193Z,15.87
2022-10-22T17:16:06.762Z,15.82
2022-10-22T17:18:35.143Z,15.75
2022-10-22T17:21:01.527Z,15.74
2022-10-22T17:23:30.585Z,15.73
2022-10-22T17:26:02.017Z,15.69
2022-10-22T17:28:29.589Z,15.65
2022-10-22T17:31:08.060Z,15.62
2022-10-22T17:33:35.480Z,15.61
2022-10-22T17:36:02.591Z,15.61
2022-10-22T17:38:28.977Z,15.60
2022-10-22T17:40:58.529Z,15.59
2022-10-22T17:43:25.500Z,15.57
2022-10-22T17:45:51.930Z,15.54
2022-10-22T17:48:18.417Z,15.53
2022-10-22T17:50:48.248Z,15.52
2022-10-22T17:53:17.376Z,15.51
2022-10-22T17:55:43.744Z,15.49
2022-10-22T17:58:10.113Z,15.47
2022-10-22T18:00:36.571Z,15.44
2022-10-22T18:03:02.997Z,15.43
2022-10-22T18:05:29.442Z,15.41
2022-10-22T18:07:56.687Z,15.41
2022-10-22T18:10:23.432Z,15.40
2022-10-22T18:12:49.787Z,15.39
2022-10-22T18:15:16.337Z,15.38
2022-10-22T18:17:42.966Z,15.38
2022-10-22T18:20:10.074Z,15.34
2022-10-22T18:22:36.431Z,15.33
2022-10-22T18:25:02.811Z,15.32
2022-10-22T18:27:29.195Z,15.30
2022-10-22T18:29:55.541Z,15.28
2022-10-22T18:32:21.937Z,15.28
2022-10-22T18:34:48.363Z,15.26
2022-10-22T18:37:14.737Z,15.26
2022-10-22T18:39:41.241Z,15.26
2022-10-22T18:42:07.635Z,15.24
2022-10-22T18:44:34.742Z,15.24
2022-10-22T18:47:01.200Z,15.23
2022-10-22T18:49:27.542Z,15.24
2022-10-22T18:51:53.926Z,15.22
2022-10-22T18:54:24.356Z,15.22
2022-10-22T18:56:52.581Z,15.18
2022-10-22T18:59:22.274Z,15.18
2022-10-22T19:01:48.927Z,15.18
2022-10-22T19:04:15.489Z,15.17
2022-10-22T19:06:45.247Z,15.15
2022-10-22T19:09:15.967Z,15.14
2022-10-22T19:11:44.769Z,15.12
2022-10-22T19:14:13.045Z,15.09
2022-10-22T19:16:39.474Z,15.08
2022-10-22T19:19:07.426Z,15.09
2022-10-22T19:21:34.225Z,15.08
2022-10-22T19:24:00.841Z,15.08
2022-10-22T19:26:29.021Z,15.08
2022-10-22T19:28:56.578Z,15.08
2022-10-22T19:31:25.280Z,15.08
2022-10-22T19:33:54.456Z,15.07
2022-10-22T19:36:24.199Z,15.05
2022-10-22T19:38:51.340Z,15.03
2022-10-22T19:41:21.217Z,15.00
2022-10-22T19:43:50.274Z,14.96
2022-10-22T19:46:17.545Z,14.92
2022-10-22T19:51:18.705Z,14.84
2022-10-22T19:53:45.889Z,14.81
2022-10-22T19:56:16.939Z,14.79
2022-10-22T19:58:43.882Z,14.75
2022-10-22T20:01:12.668Z,14.77
2022-10-22T20:03:39.489Z,14.76
2022-10-22T20:06:08.058Z,14.76
2022-10-22T20:08:37.749Z,14.74
2022-10-22T20:11:10.534Z,14.74
2022-10-22T20:16:09.582Z,14.68
2022-10-22T20:18:36.710Z,14.68
2022-10-22T20:21:07.921Z,14.67
2022-10-22T20:23:34.607Z,14.65
2022-10-22T20:26:01.045Z,14.67
2022-10-22T20:28:27.708Z,14.68
2022-10-22T20:30:54.096Z,14.67
2022-10-22T20:33:20.465Z,14.66
2022-10-22T20:35:46.851Z,14.64
2022-10-22T20:38:14.715Z,14.63
2022-10-22T20:40:41.155Z,14.64
2022-10-22T20:43:10.516Z,14.63
2022-10-22T20:45:38.758Z,14.64
2022-10-22T20:48:05.799Z,14.62
2022-10-22T20:50:32.515Z,14.61
2022-10-22T20:52:59.401Z,14.61
2022-10-22T20:55:26.608Z,14.61
2022-10-22T20:57:53.056Z,14.61
2022-10-22T21:00:19.448Z,14.61
2022-10-22T21:02:45.892Z,14.61
2022-10-22T21:05:12.273Z,14.61
2022-10-22T21:07:38.914Z,14.61
2022-10-22T21:10:05.877Z,14.59
2022-10-22T21:12:32.269Z,14.58
2022-10-22T21:14:58.684Z,14.56
2022-10-22T21:17:25.030Z,14.54
2022-10-22T21:19:51.390Z,14.52
2022-10-22T21:22:17.769Z,14.49
2022-10-22T21:24:44.153Z,14.45
2022-10-22T21:27:10.550Z,14.44
2022-10-22T21:29:36.889Z,14.42
2022-10-22T21:32:03.307Z,14.41
2022-10-22T21:34:29.723Z,14.39
2022-10-22T21:36:56.089Z,14.38
2022-10-22T21:39:22.504Z,14.39
2022-10-22T21:41:48.857Z,14.40
2022-10-22T21:44:15.234Z,14.40
2022-10-22T21:46:41.586Z,14.40
2022-10-22T21:49:08.025Z,14.41
2022-10-22T21:51:35.685Z,14.40
2022-10-22T21:54:02.128Z,14.39
2022-10-22T21:56:32.666Z,14.39
2022-10-22T21:58:59.358Z,14.39
2022-10-22T22:01:25.976Z,14.39
2022-10-22T22:03:52.608Z,14.39
2022-10-22T22:06:22.016Z,14.38
2022-10-22T22:08:49.813Z,14.35
2022-10-22T22:11:18.748Z,14.35
2022-10-22T22:13:45.520Z,14.33
2022-10-22T22:16:18.038Z,14.31
2022-10-22T22:18:44.495Z,14.31
2022-10-22T22:21:14.337Z,14.30
2022-10-22T22:23:44.022Z,14.30
2022-10-22T22:26:11.255Z,14.28
2022-10-22T22:28:37.979Z,14.28
2022-10-22T22:31:23.557Z,14.28
2022-10-22T22:33:50.801Z,14.29
2022-10-22T22:36:17.395Z,14.29
2022-10-22T22:38:43.824Z,14.28
2022-10-22T22:41:10.385Z,14.27
2022-10-22T22:43:37.575Z,14.28
2022-10-22T22:46:11.081Z,14.26
2022-10-22T22:48:37.435Z,14.26
2022-10-22T22:51:05.504Z,14.25
2022-10-22T22:53:33.149Z,14.24
2022-10-22T22:56:03.601Z,14.22
2022-10-22T22:58:30.205Z,14.21
2022-10-22T23:01:06.967Z,14.20
2022-10-22T23:03:33.418Z,14.21
2022-10-22T23:05:59.776Z,14.18
2022-10-22T23:08:26.152Z,14.18
2022-10-22T23:10:52.498Z,14.17
2022-10-22T23:13:18.873Z,14.16
2022-10-22T23:15:45.239Z,14.15
2022-10-22T23:18:11.690Z,14.16
2022-10-22T23:20:38.381Z,14.17
2022-10-22T23:23:06.074Z,14.16
2022-10-22T23:25:32.641Z,14.15
2022-10-22T23:27:58.990Z,14.14
2022-10-22T23:30:25.339Z,14.13
2022-10-22T23:32:51.729Z,14.12
2022-10-22T23:35:18.110Z,14.11
2022-10-22T23:37:44.697Z,14.11
2022-10-22T23:40:11.384Z,14.10
2022-10-22T23:45:05.420Z,14.09
2022-10-22T23:47:31.814Z,14.07
2022-10-22T23:49:58.172Z,14.07
2022-10-22T23:52:24.541Z,14.05
2022-10-22T23:54:50.914Z,14.04
2022-10-22T23:57:17.263Z,14.02
2022-10-22T23:59:43.694Z,14.03
